sensor_id;sensor_type;location;lat;lon;timestamp;P1;durP1;ratioP1;P2;durP2;ratioP2
64543;SDS011;50936;51.660;5.616;2023-03-12T00:01:15;7.90;;;4.30;;
64543;SDS011;50936;51.660;5.616;2023-03-12T00:03:49;10.02;;;4.93;;
64543;SDS011;50936;51.660;5.616;2023-03-12T00:06:17;8.65;;;3.35;;
64543;SDS011;50936;51.660;5.616;2023-03-12T00:08:45;5.40;;;2.90;;
64543;SDS011;50936;51.660;5.616;2023-03-12T00:11:14;10.43;;;4.78;;
64543;SDS011;50936;51.660;5.616;2023-03-12T00:13:47;8.13;;;3.83;;
64543;SDS011;50936;51.660;5.616;2023-03-12T00:16:16;10.90;;;4.45;;
64543;SDS011;50936;51.660;5.616;2023-03-12T00:18:45;9.82;;;4.40;;
64543;SDS011;50936;51.660;5.616;2023-03-12T00:21:14;9.45;;;4.05;;
64543;SDS011;50936;51.660;5.616;2023-03-12T00:23:41;11.25;;;4.60;;
64543;SDS011;50936;51.660;5.616;2023-03-12T00:26:10;13.60;;;4.65;;
64543;SDS011;50936;51.660;5.616;2023-03-12T00:28:39;8.15;;;4.30;;
64543;SDS011;50936;51.660;5.616;2023-03-12T00:31:17;7.85;;;3.38;;
64543;SDS011;50936;51.660;5.616;2023-03-12T00:33:48;12.50;;;4.65;;
64543;SDS011;50936;51.660;5.616;2023-03-12T00:36:16;8.68;;;3.42;;
64543;SDS011;50936;51.660;5.616;2023-03-12T00:38:46;9.38;;;4.18;;
64543;SDS011;50936;51.660;5.616;2023-03-12T00:41:13;8.77;;;4.22;;
64543;SDS011;50936;51.660;5.616;2023-03-12T00:43:40;7.85;;;4.00;;
64543;SDS011;50936;51.660;5.616;2023-03-12T00:46:07;8.93;;;4.53;;
64543;SDS011;50936;51.660;5.616;2023-03-12T00:48:34;12.05;;;4.32;;
64543;SDS011;50936;51.660;5.616;2023-03-12T00:51:01;9.82;;;4.10;;
64543;SDS011;50936;51.660;5.616;2023-03-12T00:53:29;7.97;;;4.05;;
64543;SDS011;50936;51.660;5.616;2023-03-12T00:55:55;8.30;;;4.75;;
64543;SDS011;50936;51.660;5.616;2023-03-12T00:58:23;7.35;;;3.63;;
64543;SDS011;50936;51.660;5.616;2023-03-12T01:00:50;6.63;;;3.83;;
64543;SDS011;50936;51.660;5.616;2023-03-12T01:03:17;8.07;;;4.13;;
64543;SDS011;50936;51.660;5.616;2023-03-12T01:05:44;8.70;;;4.10;;
64543;SDS011;50936;51.660;5.616;2023-03-12T01:08:11;8.05;;;4.30;;
64543;SDS011;50936;51.660;5.616;2023-03-12T01:10:40;8.50;;;4.10;;
64543;SDS011;50936;51.660;5.616;2023-03-12T01:13:08;11.38;;;4.63;;
64543;SDS011;50936;51.660;5.616;2023-03-12T01:15:35;7.68;;;3.78;;
64543;SDS011;50936;51.660;5.616;2023-03-12T01:18:02;7.30;;;3.63;;
64543;SDS011;50936;51.660;5.616;2023-03-12T01:20:29;8.77;;;4.43;;
64543;SDS011;50936;51.660;5.616;2023-03-12T01:22:56;9.45;;;4.18;;
64543;SDS011;50936;51.660;5.616;2023-03-12T01:25:23;9.52;;;4.30;;
64543;SDS011;50936;51.660;5.616;2023-03-12T01:27:49;6.68;;;3.47;;
64543;SDS011;50936;51.660;5.616;2023-03-12T01:30:17;7.38;;;3.58;;
64543;SDS011;50936;51.660;5.616;2023-03-12T01:32:44;7.95;;;3.85;;
64543;SDS011;50936;51.660;5.616;2023-03-12T01:35:11;9.07;;;4.45;;
64543;SDS011;50936;51.660;5.616;2023-03-12T01:37:38;8.07;;;4.13;;
64543;SDS011;50936;51.660;5.616;2023-03-12T01:40:05;8.50;;;3.85;;
64543;SDS011;50936;51.660;5.616;2023-03-12T01:42:33;8.52;;;3.90;;
64543;SDS011;50936;51.660;5.616;2023-03-12T01:45:01;11.98;;;4.03;;
64543;SDS011;50936;51.660;5.616;2023-03-12T01:47:31;6.07;;;3.13;;
64543;SDS011;50936;51.660;5.616;2023-03-12T01:50:02;10.65;;;4.72;;
64543;SDS011;50936;51.660;5.616;2023-03-12T01:52:32;8.85;;;4.57;;
64543;SDS011;50936;51.660;5.616;2023-03-12T01:57:58;8.32;;;4.53;;
64543;SDS011;50936;51.660;5.616;2023-03-12T02:00:27;6.95;;;3.95;;
64543;SDS011;50936;51.660;5.616;2023-03-12T02:03:13;8.13;;;3.85;;
64543;SDS011;50936;51.660;5.616;2023-03-12T02:05:45;14.20;;;4.28;;
64543;SDS011;50936;51.660;5.616;2023-03-12T02:08:18;8.90;;;4.68;;
64543;SDS011;50936;51.660;5.616;2023-03-12T02:10:48;7.22;;;3.92;;
64543;SDS011;50936;51.660;5.616;2023-03-12T02:13:18;12.27;;;4.45;;
64543;SDS011;50936;51.660;5.616;2023-03-12T02:15:49;12.88;;;4.30;;
64543;SDS011;50936;51.660;5.616;2023-03-12T02:18:17;9.80;;;3.97;;
64543;SDS011;50936;51.660;5.616;2023-03-12T02:20:49;9.55;;;4.13;;
64543;SDS011;50936;51.660;5.616;2023-03-12T02:23:51;11.13;;;3.95;;
64543;SDS011;50936;51.660;5.616;2023-03-12T02:26:59;9.35;;;4.40;;
64543;SDS011;50936;51.660;5.616;2023-03-12T02:29:27;8.35;;;3.88;;
64543;SDS011;50936;51.660;5.616;2023-03-12T02:31:59;8.25;;;3.58;;
64543;SDS011;50936;51.660;5.616;2023-03-12T02:34:30;7.85;;;3.75;;
64543;SDS011;50936;51.660;5.616;2023-03-12T02:36:56;9.30;;;3.85;;
64543;SDS011;50936;51.660;5.616;2023-03-12T02:39:24;11.43;;;4.43;;
64543;SDS011;50936;51.660;5.616;2023-03-12T02:41:52;7.57;;;3.30;;
64543;SDS011;50936;51.660;5.616;2023-03-12T02:44:24;9.60;;;3.25;;
64543;SDS011;50936;51.660;5.616;2023-03-12T02:46:56;6.47;;;2.88;;
64543;SDS011;50936;51.660;5.616;2023-03-12T02:49:27;11.05;;;4.10;;
64543;SDS011;50936;51.660;5.616;2023-03-12T02:51:58;8.00;;;4.32;;
64543;SDS011;50936;51.660;5.616;2023-03-12T02:54:26;11.20;;;3.67;;
64543;SDS011;50936;51.660;5.616;2023-03-12T02:56:55;8.23;;;3.90;;
64543;SDS011;50936;51.660;5.616;2023-03-12T02:59:23;8.68;;;3.72;;
64543;SDS011;50936;51.660;5.616;2023-03-12T03:01:55;9.52;;;3.85;;
64543;SDS011;50936;51.660;5.616;2023-03-12T03:04:26;9.40;;;4.18;;
64543;SDS011;50936;51.660;5.616;2023-03-12T03:06:55;10.13;;;3.75;;
64543;SDS011;50936;51.660;5.616;2023-03-12T03:09:23;7.10;;;4.07;;
64543;SDS011;50936;51.660;5.616;2023-03-12T03:11:51;17.20;;;4.72;;
64543;SDS011;50936;51.660;5.616;2023-03-12T03:14:18;14.70;;;3.90;;
64543;SDS011;50936;51.660;5.616;2023-03-12T03:16:48;9.68;;;3.85;;
64543;SDS011;50936;51.660;5.616;2023-03-12T03:19:16;9.50;;;3.70;;
64543;SDS011;50936;51.660;5.616;2023-03-12T03:21:43;8.00;;;3.97;;
64543;SDS011;50936;51.660;5.616;2023-03-12T03:24:10;7.57;;;3.92;;
64543;SDS011;50936;51.660;5.616;2023-03-12T03:26:37;11.40;;;4.07;;
64543;SDS011;50936;51.660;5.616;2023-03-12T03:29:04;7.95;;;4.47;;
64543;SDS011;50936;51.660;5.616;2023-03-12T03:31:31;8.75;;;3.75;;
64543;SDS011;50936;51.660;5.616;2023-03-12T03:33:59;11.07;;;4.57;;
64543;SDS011;50936;51.660;5.616;2023-03-12T03:36:26;13.38;;;4.93;;
64543;SDS011;50936;51.660;5.616;2023-03-12T03:39:01;8.48;;;4.35;;
64543;SDS011;50936;51.660;5.616;2023-03-12T03:41:30;13.20;;;4.72;;
64543;SDS011;50936;51.660;5.616;2023-03-12T03:43:58;9.52;;;4.82;;
64543;SDS011;50936;51.660;5.616;2023-03-12T03:46:27;7.90;;;3.78;;
64543;SDS011;50936;51.660;5.616;2023-03-12T03:51:28;10.18;;;4.25;;
64543;SDS011;50936;51.660;5.616;2023-03-12T03:53:59;10.80;;;4.82;;
64543;SDS011;50936;51.660;5.616;2023-03-12T03:56:27;10.48;;;5.18;;
64543;SDS011;50936;51.660;5.616;2023-03-12T03:58:56;11.45;;;4.95;;
64543;SDS011;50936;51.660;5.616;2023-03-12T04:01:25;10.00;;;5.05;;
64543;SDS011;50936;51.660;5.616;2023-03-12T04:03:53;9.13;;;4.50;;
64543;SDS011;50936;51.660;5.616;2023-03-12T04:06:20;12.88;;;5.63;;
64543;SDS011;50936;51.660;5.616;2023-03-12T04:08:47;9.73;;;4.88;;
64543;SDS011;50936;51.660;5.616;2023-03-12T04:11:17;8.82;;;4.65;;
64543;SDS011;50936;51.660;5.616;2023-03-12T04:13:47;15.95;;;5.20;;
64543;SDS011;50936;51.660;5.616;2023-03-12T04:16:18;16.25;;;6.10;;
64543;SDS011;50936;51.660;5.616;2023-03-12T04:18:47;10.60;;;4.97;;
64543;SDS011;50936;51.660;5.616;2023-03-12T04:21:15;7.55;;;3.70;;
64543;SDS011;50936;51.660;5.616;2023-03-12T04:23:43;8.48;;;4.88;;
64543;SDS011;50936;51.660;5.616;2023-03-12T04:26:12;13.07;;;4.93;;
64543;SDS011;50936;51.660;5.616;2023-03-12T04:28:39;11.20;;;5.35;;
64543;SDS011;50936;51.660;5.616;2023-03-12T04:31:07;11.60;;;5.78;;
64543;SDS011;50936;51.660;5.616;2023-03-12T04:33:40;10.27;;;4.55;;
64543;SDS011;50936;51.660;5.616;2023-03-12T04:36:08;9.32;;;4.72;;
64543;SDS011;50936;51.660;5.616;2023-03-12T04:38:41;9.05;;;4.43;;
64543;SDS011;50936;51.660;5.616;2023-03-12T04:41:10;8.23;;;4.47;;
64543;SDS011;50936;51.660;5.616;2023-03-12T04:43:46;10.45;;;5.30;;
64543;SDS011;50936;51.660;5.616;2023-03-12T04:46:14;12.38;;;5.55;;
64543;SDS011;50936;51.660;5.616;2023-03-12T04:48:42;7.13;;;4.55;;
64543;SDS011;50936;51.660;5.616;2023-03-12T04:51:11;13.23;;;5.07;;
64543;SDS011;50936;51.660;5.616;2023-03-12T04:53:38;9.13;;;4.85;;
64543;SDS011;50936;51.660;5.616;2023-03-12T04:56:08;10.77;;;5.13;;
64543;SDS011;50936;51.660;5.616;2023-03-12T04:58:36;13.05;;;4.30;;
64543;SDS011;50936;51.660;5.616;2023-03-12T05:01:03;10.27;;;5.97;;
64543;SDS011;50936;51.660;5.616;2023-03-12T05:03:31;9.68;;;5.07;;
64543;SDS011;50936;51.660;5.616;2023-03-12T05:05:59;9.98;;;4.82;;
64543;SDS011;50936;51.660;5.616;2023-03-12T05:08:26;11.23;;;5.03;;
64543;SDS011;50936;51.660;5.616;2023-03-12T05:10:53;7.45;;;4.18;;
64543;SDS011;50936;51.660;5.616;2023-03-12T05:13:21;11.68;;;5.30;;
64543;SDS011;50936;51.660;5.616;2023-03-12T05:15:52;7.18;;;3.83;;
64543;SDS011;50936;51.660;5.616;2023-03-12T05:18:19;10.70;;;4.72;;
64543;SDS011;50936;51.660;5.616;2023-03-12T05:20:56;11.43;;;5.47;;
64543;SDS011;50936;51.660;5.616;2023-03-12T05:23:35;9.88;;;3.35;;
64543;SDS011;50936;51.660;5.616;2023-03-12T05:26:04;8.05;;;4.18;;
64543;SDS011;50936;51.660;5.616;2023-03-12T05:28:33;13.05;;;5.00;;
64543;SDS011;50936;51.660;5.616;2023-03-12T05:31:07;7.93;;;3.90;;
64543;SDS011;50936;51.660;5.616;2023-03-12T05:33:37;11.45;;;4.50;;
64543;SDS011;50936;51.660;5.616;2023-03-12T05:36:04;8.10;;;4.03;;
64543;SDS011;50936;51.660;5.616;2023-03-12T05:38:32;9.68;;;4.25;;
64543;SDS011;50936;51.660;5.616;2023-03-12T05:41:00;7.72;;;3.58;;
64543;SDS011;50936;51.660;5.616;2023-03-12T05:43:31;14.52;;;4.50;;
64543;SDS011;50936;51.660;5.616;2023-03-12T05:46:01;6.90;;;3.03;;
64543;SDS011;50936;51.660;5.616;2023-03-12T05:48:32;10.27;;;3.83;;
64543;SDS011;50936;51.660;5.616;2023-03-12T05:51:00;6.68;;;3.83;;
64543;SDS011;50936;51.660;5.616;2023-03-12T05:53:27;7.53;;;3.65;;
64543;SDS011;50936;51.660;5.616;2023-03-12T05:55:54;14.30;;;5.03;;
64543;SDS011;50936;51.660;5.616;2023-03-12T05:58:21;9.23;;;4.57;;
64543;SDS011;50936;51.660;5.616;2023-03-12T06:00:49;9.35;;;4.57;;
64543;SDS011;50936;51.660;5.616;2023-03-12T06:03:16;10.68;;;4.13;;
64543;SDS011;50936;51.660;5.616;2023-03-12T06:05:43;11.68;;;3.88;;
64543;SDS011;50936;51.660;5.616;2023-03-12T06:08:13;10.50;;;4.53;;
64543;SDS011;50936;51.660;5.616;2023-03-12T06:10:40;9.00;;;4.28;;
64543;SDS011;50936;51.660;5.616;2023-03-12T06:13:07;12.48;;;4.60;;
64543;SDS011;50936;51.660;5.616;2023-03-12T06:15:34;10.95;;;5.07;;
64543;SDS011;50936;51.660;5.616;2023-03-12T06:18:03;12.30;;;4.78;;
64543;SDS011;50936;51.660;5.616;2023-03-12T06:20:32;6.72;;;3.78;;
64543;SDS011;50936;51.660;5.616;2023-03-12T06:22:59;12.48;;;4.65;;
64543;SDS011;50936;51.660;5.616;2023-03-12T06:25:26;9.52;;;4.90;;
64543;SDS011;50936;51.660;5.616;2023-03-12T06:27:53;9.55;;;4.57;;
64543;SDS011;50936;51.660;5.616;2023-03-12T06:30:20;8.57;;;3.92;;
64543;SDS011;50936;51.660;5.616;2023-03-12T06:32:47;12.90;;;4.97;;
64543;SDS011;50936;51.660;5.616;2023-03-12T06:35:14;14.65;;;4.38;;
64543;SDS011;50936;51.660;5.616;2023-03-12T06:37:45;11.13;;;5.20;;
64543;SDS011;50936;51.660;5.616;2023-03-12T06:40:12;9.20;;;4.30;;
64543;SDS011;50936;51.660;5.616;2023-03-12T06:42:39;12.93;;;6.75;;
64543;SDS011;50936;51.660;5.616;2023-03-12T06:45:06;9.70;;;4.75;;
64543;SDS011;50936;51.660;5.616;2023-03-12T06:47:33;10.15;;;5.00;;
64543;SDS011;50936;51.660;5.616;2023-03-12T06:50:00;13.57;;;5.75;;
64543;SDS011;50936;51.660;5.616;2023-03-12T06:52:27;15.90;;;6.90;;
64543;SDS011;50936;51.660;5.616;2023-03-12T06:54:54;14.75;;;5.65;;
64543;SDS011;50936;51.660;5.616;2023-03-12T06:57:21;16.33;;;6.90;;
64543;SDS011;50936;51.660;5.616;2023-03-12T06:59:47;11.63;;;5.13;;
64543;SDS011;50936;51.660;5.616;2023-03-12T07:02:16;10.80;;;4.78;;
64543;SDS011;50936;51.660;5.616;2023-03-12T07:04:43;13.55;;;6.38;;
64543;SDS011;50936;51.660;5.616;2023-03-12T07:07:10;11.77;;;6.18;;
64543;SDS011;50936;51.660;5.616;2023-03-12T07:09:37;15.63;;;7.07;;
64543;SDS011;50936;51.660;5.616;2023-03-12T07:12:04;13.02;;;6.95;;
64543;SDS011;50936;51.660;5.616;2023-03-12T07:14:31;15.85;;;7.15;;
64543;SDS011;50936;51.660;5.616;2023-03-12T07:16:58;13.07;;;6.05;;
64543;SDS011;50936;51.660;5.616;2023-03-12T07:19:27;18.20;;;8.23;;
64543;SDS011;50936;51.660;5.616;2023-03-12T07:21:55;21.83;;;7.72;;
64543;SDS011;50936;51.660;5.616;2023-03-12T07:24:23;14.45;;;7.40;;
64543;SDS011;50936;51.660;5.616;2023-03-12T07:26:49;22.08;;;7.72;;
64543;SDS011;50936;51.660;5.616;2023-03-12T07:29:16;17.05;;;7.18;;
64543;SDS011;50936;51.660;5.616;2023-03-12T07:31:43;16.23;;;7.85;;
64543;SDS011;50936;51.660;5.616;2023-03-12T07:34:10;9.38;;;4.97;;
64543;SDS011;50936;51.660;5.616;2023-03-12T07:36:37;12.27;;;6.22;;
64543;SDS011;50936;51.660;5.616;2023-03-12T07:39:05;18.70;;;7.05;;
64543;SDS011;50936;51.660;5.616;2023-03-12T07:41:31;12.93;;;6.18;;
64543;SDS011;50936;51.660;5.616;2023-03-12T07:43:58;19.08;;;9.18;;
64543;SDS011;50936;51.660;5.616;2023-03-12T07:46:26;22.67;;;10.82;;
64543;SDS011;50936;51.660;5.616;2023-03-12T07:48:52;16.90;;;7.80;;
64543;SDS011;50936;51.660;5.616;2023-03-12T07:51:19;16.13;;;7.43;;
64543;SDS011;50936;51.660;5.616;2023-03-12T07:53:46;21.88;;;8.30;;
64543;SDS011;50936;51.660;5.616;2023-03-12T07:56:14;9.10;;;4.18;;
64543;SDS011;50936;51.660;5.616;2023-03-12T07:58:41;14.27;;;6.88;;
64543;SDS011;50936;51.660;5.616;2023-03-12T08:01:08;17.15;;;8.63;;
64543;SDS011;50936;51.660;5.616;2023-03-12T08:03:35;12.82;;;6.65;;
64543;SDS011;50936;51.660;5.616;2023-03-12T08:06:04;16.15;;;7.10;;
64543;SDS011;50936;51.660;5.616;2023-03-12T08:08:32;20.20;;;10.63;;
64543;SDS011;50936;51.660;5.616;2023-03-12T08:11:00;14.27;;;6.63;;
64543;SDS011;50936;51.660;5.616;2023-03-12T08:13:30;15.40;;;7.93;;
64543;SDS011;50936;51.660;5.616;2023-03-12T08:15:56;19.52;;;8.73;;
64543;SDS011;50936;51.660;5.616;2023-03-12T08:18:24;20.60;;;9.43;;
64543;SDS011;50936;51.660;5.616;2023-03-12T08:20:51;11.10;;;6.68;;
64543;SDS011;50936;51.660;5.616;2023-03-12T08:23:20;17.50;;;8.52;;
64543;SDS011;50936;51.660;5.616;2023-03-12T08:25:48;22.85;;;8.48;;
64543;SDS011;50936;51.660;5.616;2023-03-12T08:28:16;9.93;;;5.50;;
64543;SDS011;50936;51.660;5.616;2023-03-12T08:30:45;14.30;;;6.65;;
64543;SDS011;50936;51.660;5.616;2023-03-12T08:33:21;18.20;;;8.45;;
64543;SDS011;50936;51.660;5.616;2023-03-12T08:35:48;14.73;;;6.80;;
64543;SDS011;50936;51.660;5.616;2023-03-12T08:38:15;14.32;;;5.60;;
64543;SDS011;50936;51.660;5.616;2023-03-12T08:40:42;21.23;;;10.55;;
64543;SDS011;50936;51.660;5.616;2023-03-12T08:43:10;13.23;;;5.57;;
64543;SDS011;50936;51.660;5.616;2023-03-12T08:45:37;11.07;;;5.25;;
64543;SDS011;50936;51.660;5.616;2023-03-12T08:48:05;18.67;;;9.40;;
64543;SDS011;50936;51.660;5.616;2023-03-12T08:50:33;14.35;;;7.88;;
64543;SDS011;50936;51.660;5.616;2023-03-12T08:53:00;19.48;;;8.95;;
64543;SDS011;50936;51.660;5.616;2023-03-12T08:55:27;15.57;;;7.30;;
64543;SDS011;50936;51.660;5.616;2023-03-12T08:57:54;18.85;;;8.23;;
64543;SDS011;50936;51.660;5.616;2023-03-12T09:00:23;9.90;;;4.93;;
64543;SDS011;50936;51.660;5.616;2023-03-12T09:02:50;22.02;;;9.90;;
64543;SDS011;50936;51.660;5.616;2023-03-12T09:05:19;12.65;;;6.28;;
64543;SDS011;50936;51.660;5.616;2023-03-12T09:07:46;16.50;;;8.52;;
64543;SDS011;50936;51.660;5.616;2023-03-12T09:10:13;15.82;;;8.13;;
64543;SDS011;50936;51.660;5.616;2023-03-12T09:12:40;17.55;;;8.48;;
64543;SDS011;50936;51.660;5.616;2023-03-12T09:15:07;17.40;;;7.30;;
64543;SDS011;50936;51.660;5.616;2023-03-12T09:17:35;17.30;;;8.05;;
64543;SDS011;50936;51.660;5.616;2023-03-12T09:20:03;18.60;;;8.93;;
64543;SDS011;50936;51.660;5.616;2023-03-12T09:22:34;19.52;;;7.75;;
64543;SDS011;50936;51.660;5.616;2023-03-12T09:25:02;20.98;;;8.63;;
64543;SDS011;50936;51.660;5.616;2023-03-12T09:27:39;26.85;;;9.27;;
64543;SDS011;50936;51.660;5.616;2023-03-12T09:30:13;18.83;;;9.95;;
64543;SDS011;50936;51.660;5.616;2023-03-12T09:32:52;19.65;;;11.70;;
64543;SDS011;50936;51.660;5.616;2023-03-12T09:35:19;18.30;;;8.38;;
64543;SDS011;50936;51.660;5.616;2023-03-12T09:37:48;22.13;;;9.30;;
64543;SDS011;50936;51.660;5.616;2023-03-12T09:40:18;20.55;;;10.05;;
64543;SDS011;50936;51.660;5.616;2023-03-12T09:42:49;21.60;;;10.02;;
64543;SDS011;50936;51.660;5.616;2023-03-12T09:45:29;26.58;;;11.57;;
64543;SDS011;50936;51.660;5.616;2023-03-12T09:48:04;30.52;;;12.15;;
64543;SDS011;50936;51.660;5.616;2023-03-12T09:50:43;23.88;;;10.40;;
64543;SDS011;50936;51.660;5.616;2023-03-12T09:53:27;24.20;;;10.38;;
64543;SDS011;50936;51.660;5.616;2023-03-12T09:56:09;27.98;;;10.95;;
64543;SDS011;50936;51.660;5.616;2023-03-12T09:58:43;24.52;;;13.25;;
64543;SDS011;50936;51.660;5.616;2023-03-12T10:01:27;37.08;;;14.25;;
64543;SDS011;50936;51.660;5.616;2023-03-12T10:04:37;24.52;;;10.07;;
64543;SDS011;50936;51.660;5.616;2023-03-12T10:07:33;29.38;;;13.43;;
64543;SDS011;50936;51.660;5.616;2023-03-12T10:21:49;27.77;;;15.80;;
64543;SDS011;50936;51.660;5.616;2023-03-12T10:24:46;28.30;;;13.68;;
64543;SDS011;50936;51.660;5.616;2023-03-12T10:27:30;28.38;;;12.45;;
64543;SDS011;50936;51.660;5.616;2023-03-12T10:30:04;32.05;;;12.60;;
64543;SDS011;50936;51.660;5.616;2023-03-12T10:32:46;31.58;;;16.83;;
64543;SDS011;50936;51.660;5.616;2023-03-12T10:35:24;31.48;;;14.38;;
64543;SDS011;50936;51.660;5.616;2023-03-12T10:37:56;32.45;;;12.68;;
64543;SDS011;50936;51.660;5.616;2023-03-12T10:40:37;27.58;;;12.38;;
64543;SDS011;50936;51.660;5.616;2023-03-12T10:43:06;29.27;;;14.77;;
64543;SDS011;50936;51.660;5.616;2023-03-12T10:48:26;33.63;;;17.70;;
64543;SDS011;50936;51.660;5.616;2023-03-12T10:53:31;27.60;;;12.38;;
64543;SDS011;50936;51.660;5.616;2023-03-12T10:56:12;35.58;;;19.23;;
64543;SDS011;50936;51.660;5.616;2023-03-12T10:58:43;31.50;;;13.38;;
64543;SDS011;50936;51.660;5.616;2023-03-12T11:03:41;28.25;;;11.00;;
64543;SDS011;50936;51.660;5.616;2023-03-12T11:06:21;22.83;;;11.27;;
64543;SDS011;50936;51.660;5.616;2023-03-12T11:11:51;21.08;;;11.88;;
64543;SDS011;50936;51.660;5.616;2023-03-12T11:14:19;31.23;;;12.63;;
64543;SDS011;50936;51.660;5.616;2023-03-12T11:16:50;32.55;;;12.65;;
64543;SDS011;50936;51.660;5.616;2023-03-12T11:19:29;29.42;;;17.33;;
64543;SDS011;50936;51.660;5.616;2023-03-12T11:22:00;25.00;;;13.15;;
64543;SDS011;50936;51.660;5.616;2023-03-12T11:24:31;27.25;;;10.80;;
64543;SDS011;50936;51.660;5.616;2023-03-12T11:29:44;28.77;;;13.27;;
64543;SDS011;50936;51.660;5.616;2023-03-12T11:32:21;26.25;;;11.27;;
64543;SDS011;50936;51.660;5.616;2023-03-12T11:34:58;23.80;;;12.10;;
64543;SDS011;50936;51.660;5.616;2023-03-12T11:43:20;21.58;;;9.27;;
64543;SDS011;50936;51.660;5.616;2023-03-12T11:46:17;26.55;;;12.38;;
64543;SDS011;50936;51.660;5.616;2023-03-12T11:57:33;24.92;;;10.27;;
64543;SDS011;50936;51.660;5.616;2023-03-12T12:00:16;28.55;;;9.52;;
64543;SDS011;50936;51.660;5.616;2023-03-12T12:06:06;22.33;;;8.90;;
64543;SDS011;50936;51.660;5.616;2023-03-12T12:09:20;27.60;;;9.27;;
64543;SDS011;50936;51.660;5.616;2023-03-12T12:12:13;30.45;;;12.30;;
64543;SDS011;50936;51.660;5.616;2023-03-12T12:14:58;37.05;;;10.07;;
64543;SDS011;50936;51.660;5.616;2023-03-12T12:20:47;29.92;;;9.30;;
64543;SDS011;50936;51.660;5.616;2023-03-12T12:26:15;21.23;;;9.63;;
64543;SDS011;50936;51.660;5.616;2023-03-12T12:29:08;24.23;;;8.82;;
64543;SDS011;50936;51.660;5.616;2023-03-12T12:31:52;31.80;;;9.50;;
64543;SDS011;50936;51.660;5.616;2023-03-12T12:39:58;21.33;;;8.00;;
64543;SDS011;50936;51.660;5.616;2023-03-12T12:45:33;21.92;;;5.32;;
64543;SDS011;50936;51.660;5.616;2023-03-12T12:48:08;14.60;;;4.50;;
64543;SDS011;50936;51.660;5.616;2023-03-12T12:50:46;20.08;;;5.60;;
64543;SDS011;50936;51.660;5.616;2023-03-12T12:53:24;12.75;;;4.38;;
64543;SDS011;50936;51.660;5.616;2023-03-12T12:56:08;19.70;;;5.35;;
64543;SDS011;50936;51.660;5.616;2023-03-12T12:59:01;19.33;;;6.07;;
64543;SDS011;50936;51.660;5.616;2023-03-12T13:01:57;13.45;;;4.28;;
64543;SDS011;50936;51.660;5.616;2023-03-12T13:04:32;26.95;;;6.03;;
64543;SDS011;50936;51.660;5.616;2023-03-12T13:09:43;23.92;;;5.25;;
64543;SDS011;50936;51.660;5.616;2023-03-12T13:12:20;16.40;;;4.55;;
64543;SDS011;50936;51.660;5.616;2023-03-12T13:14:51;16.58;;;4.40;;
64543;SDS011;50936;51.660;5.616;2023-03-12T13:17:34;19.05;;;4.53;;
64543;SDS011;50936;51.660;5.616;2023-03-12T13:20:24;29.10;;;6.13;;
64543;SDS011;50936;51.660;5.616;2023-03-12T13:23:10;14.50;;;4.55;;
64543;SDS011;50936;51.660;5.616;2023-03-12T13:26:29;19.27;;;3.92;;
64543;SDS011;50936;51.660;5.616;2023-03-12T13:31:53;33.00;;;6.22;;
64543;SDS011;50936;51.660;5.616;2023-03-12T13:36:57;26.08;;;5.40;;
64543;SDS011;50936;51.660;5.616;2023-03-12T13:39:36;16.58;;;4.68;;
64543;SDS011;50936;51.660;5.616;2023-03-12T13:44:49;18.77;;;4.78;;
64543;SDS011;50936;51.660;5.616;2023-03-12T13:47:25;19.95;;;4.80;;
64543;SDS011;50936;51.660;5.616;2023-03-12T13:49:58;23.95;;;5.60;;
64543;SDS011;50936;51.660;5.616;2023-03-12T13:57:53;14.63;;;3.28;;
64543;SDS011;50936;51.660;5.616;2023-03-12T14:03:07;24.15;;;3.75;;
64543;SDS011;50936;51.660;5.616;2023-03-12T14:05:46;15.38;;;4.35;;
64543;SDS011;50936;51.660;5.616;2023-03-12T14:11:40;20.08;;;3.95;;
64543;SDS011;50936;51.660;5.616;2023-03-12T14:17:22;26.08;;;4.43;;
64543;SDS011;50936;51.660;5.616;2023-03-12T14:19:56;16.65;;;4.15;;
64543;SDS011;50936;51.660;5.616;2023-03-12T14:22:28;9.55;;;3.35;;
64543;SDS011;50936;51.660;5.616;2023-03-12T14:25:03;16.27;;;3.13;;
64543;SDS011;50936;51.660;5.616;2023-03-12T14:27:40;13.10;;;3.22;;
64543;SDS011;50936;51.660;5.616;2023-03-12T14:30:22;23.05;;;5.07;;
64543;SDS011;50936;51.660;5.616;2023-03-12T14:33:01;14.18;;;2.45;;
64543;SDS011;50936;51.660;5.616;2023-03-12T14:35:33;19.73;;;3.40;;
64543;SDS011;50936;51.660;5.616;2023-03-12T14:38:15;14.82;;;3.47;;
64543;SDS011;50936;51.660;5.616;2023-03-12T14:43:32;15.50;;;3.58;;
64543;SDS011;50936;51.660;5.616;2023-03-12T14:46:01;19.85;;;4.53;;
64543;SDS011;50936;51.660;5.616;2023-03-12T14:48:38;22.52;;;4.70;;
64543;SDS011;50936;51.660;5.616;2023-03-12T14:51:06;18.67;;;3.72;;
64543;SDS011;50936;51.660;5.616;2023-03-12T14:53:34;21.88;;;3.53;;
64543;SDS011;50936;51.660;5.616;2023-03-12T14:56:09;16.80;;;4.72;;
64543;SDS011;50936;51.660;5.616;2023-03-12T14:58:42;24.88;;;4.38;;
64543;SDS011;50936;51.660;5.616;2023-03-12T15:01:16;20.13;;;5.55;;
64543;SDS011;50936;51.660;5.616;2023-03-12T15:03:52;16.67;;;3.90;;
64543;SDS011;50936;51.660;5.616;2023-03-12T15:06:30;22.88;;;5.45;;
64543;SDS011;50936;51.660;5.616;2023-03-12T15:09:05;23.42;;;5.88;;
64543;SDS011;50936;51.660;5.616;2023-03-12T15:11:39;20.92;;;5.20;;
64543;SDS011;50936;51.660;5.616;2023-03-12T15:14:07;20.90;;;4.63;;
64543;SDS011;50936;51.660;5.616;2023-03-12T15:16:40;23.10;;;3.92;;
64543;SDS011;50936;51.660;5.616;2023-03-12T15:19:11;23.10;;;7.47;;
64543;SDS011;50936;51.660;5.616;2023-03-12T15:21:41;21.00;;;5.57;;
64543;SDS011;50936;51.660;5.616;2023-03-12T15:24:10;24.42;;;5.35;;
64543;SDS011;50936;51.660;5.616;2023-03-12T15:26:39;27.70;;;6.20;;
64543;SDS011;50936;51.660;5.616;2023-03-12T15:29:22;22.42;;;4.72;;
64543;SDS011;50936;51.660;5.616;2023-03-12T15:31:54;20.17;;;4.03;;
64543;SDS011;50936;51.660;5.616;2023-03-12T15:37:24;17.63;;;3.65;;
64543;SDS011;50936;51.660;5.616;2023-03-12T15:40:05;16.95;;;3.95;;
64543;SDS011;50936;51.660;5.616;2023-03-12T15:42:46;22.70;;;4.75;;
64543;SDS011;50936;51.660;5.616;2023-03-12T15:45:24;19.55;;;3.72;;
64543;SDS011;50936;51.660;5.616;2023-03-12T15:48:11;16.10;;;3.83;;
64543;SDS011;50936;51.660;5.616;2023-03-12T15:50:44;19.02;;;3.28;;
64543;SDS011;50936;51.660;5.616;2023-03-12T15:55:41;20.35;;;3.83;;
64543;SDS011;50936;51.660;5.616;2023-03-12T15:58:34;21.05;;;3.72;;
64543;SDS011;50936;51.660;5.616;2023-03-12T16:01:08;19.42;;;3.50;;
64543;SDS011;50936;51.660;5.616;2023-03-12T16:03:41;20.05;;;4.20;;
64543;SDS011;50936;51.660;5.616;2023-03-12T16:06:15;18.50;;;3.22;;
64543;SDS011;50936;51.660;5.616;2023-03-12T16:08:49;14.40;;;3.10;;
64543;SDS011;50936;51.660;5.616;2023-03-12T16:11:24;13.70;;;3.63;;
64543;SDS011;50936;51.660;5.616;2023-03-12T16:14:05;16.00;;;3.72;;
64543;SDS011;50936;51.660;5.616;2023-03-12T16:16:42;21.15;;;3.85;;
64543;SDS011;50936;51.660;5.616;2023-03-12T16:19:13;18.17;;;4.00;;
64543;SDS011;50936;51.660;5.616;2023-03-12T16:21:44;21.85;;;4.80;;
64543;SDS011;50936;51.660;5.616;2023-03-12T16:24:11;15.27;;;3.42;;
64543;SDS011;50936;51.660;5.616;2023-03-12T16:26:55;26.20;;;5.40;;
64543;SDS011;50936;51.660;5.616;2023-03-12T16:29:26;25.00;;;6.22;;
64543;SDS011;50936;51.660;5.616;2023-03-12T16:31:59;14.60;;;3.85;;
64543;SDS011;50936;51.660;5.616;2023-03-12T16:34:27;23.73;;;4.93;;
64543;SDS011;50936;51.660;5.616;2023-03-12T16:36:54;22.63;;;5.93;;
64543;SDS011;50936;51.660;5.616;2023-03-12T16:39:22;25.77;;;5.47;;